Waka, Texas
Current Conditions -  °F | °C
As of 5:15 PM on Wednesday 22 Oct 2014 (Local Time) from KPYX Reporting Station
Scattered Clouds Scattered Clouds  
Wind Chill: 70°   Ceiling: Unl
Heat Index: 70°   Visibility: 10mi
Dew Point: 59°   Wind: 21mph
Humidity: 66%   Direction: 170°S
Pressure: 30.03"   Gusts: 26mph
Location:  36.28°N, 101.05°W
Report Text: KPYX 222215Z AUTO 17018G23KT 10SM SCT024 SCT030 21/15 A3003 RMK AO2 T02130148
Loading
Personal Weather Stations






























Interactive Weather Map
Tropical Storm Tracking
New forecast layout! Learn more

10-Day Weather Forecast

Advertisements
Track Severe Weather on mobile